createdAt,value
2022-11-21T07:35:40.005Z,-18.99
2022-11-21T07:40:43.772Z,-18.87
2022-11-21T07:45:47.678Z,-18.46
2022-11-21T07:50:52.735Z,-21.08
2022-11-21T07:55:59.055Z,-18.36
2022-11-21T08:01:06.251Z,-18.47
2022-11-21T08:06:14.426Z,-20.85
2022-11-21T08:11:18.128Z,-18.01
2022-11-21T08:16:27.899Z,-19.21
2022-11-21T08:21:32.982Z,-19.06
2022-11-21T08:26:36.420Z,-18.29
2022-11-21T08:31:41.013Z,-17.98
2022-11-21T08:36:49.000Z,-18.05
2022-11-21T08:42:04.708Z,-17.83
2022-11-21T08:47:08.790Z,-17.67
2022-11-21T08:52:17.477Z,-17.57
2022-11-21T08:57:24.218Z,-17.55
2022-11-21T09:02:28.068Z,-17.87
2022-11-21T09:07:33.269Z,-17.96
2022-11-21T09:12:37.182Z,-19.24
2022-11-21T09:17:58.386Z,-18.80
2022-11-21T09:23:08.179Z,-18.39
2022-11-21T09:28:15.216Z,-19.35
2022-11-21T09:33:19.005Z,-18.61
2022-11-21T09:38:24.547Z,-19.34
2022-11-21T09:43:39.907Z,-19.17
2022-11-21T09:48:49.697Z,-18.01
2022-11-21T09:53:59.824Z,-18.12
2022-11-21T09:59:16.882Z,-18.75
2022-11-21T10:04:20.763Z,-17.70
2022-11-21T10:09:36.864Z,-19.84
2022-11-21T10:14:53.582Z,-17.82
2022-11-21T10:20:27.401Z,-18.18
2022-11-21T10:25:39.551Z,-17.11
2022-11-21T10:30:45.903Z,-18.71
2022-11-21T10:35:54.570Z,-17.17
2022-11-21T10:41:07.152Z,-17.26
2022-11-21T10:46:11.027Z,-17.38
2022-11-21T10:51:31.305Z,-17.97
2022-11-21T10:56:38.311Z,-17.23
2022-11-21T11:01:55.080Z,-16.94
2022-11-21T11:07:00.586Z,-16.72
2022-11-21T11:12:47.011Z,-16.66
2022-11-21T11:17:54.334Z,-17.20
2022-11-21T11:22:58.076Z,-16.68
2022-11-21T11:28:09.274Z,-16.96
2022-11-21T11:33:35.708Z,-16.58
2022-11-21T11:38:45.192Z,-16.62
2022-11-21T11:44:18.174Z,-17.79
2022-11-21T11:49:30.691Z,-16.56
2022-11-21T11:54:51.462Z,-16.45
2022-11-21T12:00:06.110Z,-16.54
2022-11-21T12:05:22.388Z,-16.27
2022-11-21T12:10:32.432Z,-16.34
2022-11-21T12:15:51.362Z,-16.57
2022-11-21T12:21:02.401Z,-16.33
2022-11-21T12:26:29.983Z,-16.58
2022-11-21T12:31:45.472Z,-16.39
2022-11-21T12:36:56.743Z,-16.85
2022-11-21T12:42:28.751Z,-16.66
2022-11-21T12:48:11.795Z,-16.65
2022-11-21T12:53:44.850Z,-16.33
2022-11-21T12:58:56.929Z,-17.22
2022-11-21T13:04:05.246Z,-16.35
2022-11-21T13:09:14.211Z,-16.49
2022-11-21T13:14:26.352Z,-16.35
2022-11-21T13:19:38.999Z,-16.56
2022-11-21T13:24:59.956Z,-16.66
2022-11-21T13:30:21.941Z,-16.39
2022-11-21T13:36:05.502Z,-16.36
2022-11-21T13:41:30.441Z,-16.73
2022-11-21T13:47:00.189Z,-16.50
2022-11-21T13:52:13.576Z,-16.58
2022-11-21T13:57:42.035Z,-16.66
2022-11-21T14:03:20.333Z,-16.71
2022-11-21T14:08:26.920Z,-17.82
2022-11-21T14:13:39.322Z,-16.56
2022-11-21T14:18:51.881Z,-16.65
2022-11-21T14:24:06.118Z,-16.66
2022-11-21T14:30:02.095Z,-16.95
2022-11-21T14:48:33.804Z,-17.33
2022-11-21T14:53:44.774Z,-17.78
2022-11-21T14:58:49.331Z,-17.36
2022-11-21T15:03:57.229Z,-17.64
2022-11-21T15:10:24.795Z,-17.33
2022-11-21T15:14:32.047Z,-17.13
2022-11-21T15:19:35.890Z,-17.37
2022-11-21T15:24:43.234Z,-17.18
2022-11-21T15:29:47.095Z,-19.76
2022-11-21T15:34:51.183Z,-17.18
2022-11-21T15:39:56.560Z,-17.13
2022-11-21T15:45:01.109Z,-17.14
2022-11-21T15:50:08.932Z,-17.06
2022-11-21T15:55:20.954Z,-18.13
2022-11-21T16:00:25.417Z,-17.30
2022-11-21T16:05:29.657Z,-17.87
2022-11-21T16:10:36.113Z,-17.27
2022-11-21T16:15:41.264Z,-17.27
2022-11-21T16:20:44.753Z,-17.29
2022-11-21T16:25:55.120Z,-17.37
2022-11-21T16:30:59.321Z,-17.75
2022-11-21T16:36:03.117Z,-17.65
2022-11-21T16:41:08.542Z,-17.39
2022-11-21T16:46:13.183Z,-17.36
2022-11-21T16:51:19.138Z,-18.14
2022-11-21T16:56:24.764Z,-17.42
2022-11-21T17:01:29.246Z,-17.40
2022-11-21T17:06:35.771Z,-17.81
2022-11-21T17:11:41.528Z,-17.84
2022-11-21T17:16:45.827Z,-17.49
2022-11-21T17:21:53.838Z,-17.86
2022-11-21T17:27:01.179Z,-17.51
2022-11-21T17:32:04.955Z,-17.60
2022-11-21T17:37:09.187Z,-17.72
2022-11-21T17:42:14.497Z,-18.24
2022-11-21T17:47:18.358Z,-17.86
2022-11-21T17:52:22.264Z,-17.93
2022-11-21T17:57:27.915Z,-18.00
2022-11-21T18:02:31.958Z,-18.33
2022-11-21T18:07:37.846Z,-18.16
2022-11-21T18:12:43.910Z,-18.24
2022-11-21T18:17:47.695Z,-18.47
2022-11-21T18:22:52.072Z,-18.60
2022-11-21T18:27:59.741Z,-18.72
2022-11-21T18:33:04.645Z,-18.86
2022-11-21T18:38:08.526Z,-18.94
2022-11-21T18:43:13.747Z,-19.36
2022-11-21T18:48:19.860Z,-19.13
2022-11-21T18:53:23.643Z,-19.58
2022-11-21T18:58:29.164Z,-19.70
2022-11-21T19:03:37.801Z,-19.38
2022-11-21T19:08:41.843Z,-19.45
2022-11-21T19:13:48.904Z,-19.81
2022-11-21T19:24:19.801Z,-19.89
2022-11-21T19:29:24.964Z,-19.40
2022-11-21T19:34:28.495Z,-19.41
2022-11-21T19:39:34.978Z,-19.32
2022-11-21T19:44:40.483Z,-19.24
2022-11-21T19:49:44.380Z,-19.26
2022-11-21T19:54:49.514Z,-19.28
2022-11-21T19:59:55.800Z,-19.84
2022-11-21T20:04:59.578Z,-19.96
2022-11-21T20:10:03.613Z,-19.49
2022-11-21T20:15:13.308Z,-19.53
2022-11-21T20:20:17.519Z,-19.66
2022-11-21T20:25:23.479Z,-19.68
2022-11-21T20:30:29.673Z,-19.72
2022-11-21T20:35:33.653Z,-20.06
2022-11-21T20:40:37.727Z,-20.19
2022-11-21T20:46:17.024Z,-20.28
2022-11-21T20:56:34.617Z,-20.87
2022-11-21T21:01:40.266Z,-19.76
2022-11-21T21:06:44.070Z,-19.80
2022-11-21T21:11:52.927Z,-19.80
2022-11-21T21:16:59.620Z,-20.84
2022-11-21T21:22:04.970Z,-19.89
2022-11-21T21:27:11.686Z,-19.83
